Time;durP1;ratioP1;P1;durP2;ratioP2;P2;SDS_P1;SDS_P2;PMS_P1;PMS_P2;Temp;Humidity;BMP_temperature;BMP_pressure;BME280_temperature;BME280_humidity;BME280_pressure;Samples;Min_cycle;Max_cycle;Signal;HPM_P1;HPM_P2
2023/12/27 00:02:10;;;;;;;;;;;;;;;10.36;57.09;100765.75;5447464;32;34396;-70
2023/12/27 00:05:13;;;;;;;;;;;;;;;10.73;56.53;100764.56;5445596;32;35411;-69
2023/12/27 00:08:15;;;;;;;;;;;;;;;11.03;55.46;100781.06;5458367;32;34373;-71
2023/12/27 00:11:17;;;;;;;;;;;;;;;10.20;57.41;100775.87;5466821;32;34445;-73
2023/12/27 00:14:20;;;;;;;;;;;;;;;10.54;56.97;100775.69;5461546;32;34813;-70
2023/12/27 00:17:22;;;;;;;;;;;;;;;10.51;56.26;100778.44;5466317;32;34755;-69
2023/12/27 00:20:24;;;;;;;;;;;;;;;10.78;55.40;100784.53;5441009;32;34677;-73
2023/12/27 00:23:27;;;;;;;;;;;;;;;10.67;55.77;100789.28;5459399;32;34262;-71
2023/12/27 00:26:29;;;;;;;;;;;;;;;10.43;56.41;100788.34;5451745;32;34138;-70
2023/12/27 00:29:31;;;;;;;;;;;;;;;10.15;57.18;100796.16;5461155;32;35570;-73
2023/12/27 00:32:33;;;;;;;;;;;;;;;10.47;56.73;100812.72;5465717;32;34879;-72
2023/12/27 00:35:36;;;;;;;;;;;;;;;10.60;56.49;100813.19;5461835;32;34330;-71
2023/12/27 00:38:38;;;;;;;;;;;;;;;11.06;55.13;100823.03;5467937;32;35377;-73
2023/12/27 00:41:40;;;;;;;;;;;;;;;10.45;56.62;100820.66;5460944;32;34651;-72
2023/12/27 00:44:42;;;;;;;;;;;;;;;10.79;55.50;100830.09;5461489;32;35350;-72
2023/12/27 00:47:45;;;;;;;;;;;;;;;10.58;56.05;100824.63;5465182;32;35292;-70
2023/12/27 00:50:48;;;;;;;;;;;;;;;11.05;54.94;100822.19;5472249;32;35415;-72
2023/12/27 00:53:50;;;;;;;;;;;;;;;10.90;54.84;100824.47;5462667;32;35127;-71
2023/12/27 00:56:52;;;;;;;;;;;;;;;10.09;57.16;100830.50;5460219;32;34869;-72
2023/12/27 00:59:54;;;;;;;;;;;;;;;10.33;56.76;100836.81;5444895;32;34745;-72
2023/12/27 01:02:57;;;;;;;;;;;;;;;10.55;56.46;100847.50;5456044;32;35669;-69
2023/12/27 01:05:59;;;;;;;;;;;;;;;10.41;56.84;100849.72;5461153;32;35354;-70
2023/12/27 01:09:01;;;;;;;;;;;;;;;10.72;55.80;100845.22;5448628;32;34860;-70
2023/12/27 01:12:03;;;;;;;;;;;;;;;10.65;56.48;100856.84;5460841;32;35417;-69
2023/12/27 01:15:06;;;;;;;;;;;;;;;10.69;56.13;100863.72;5465648;32;35168;-71
2023/12/27 01:18:08;;;;;;;;;;;;;;;10.47;57.14;100870.53;5460071;32;35176;-72
2023/12/27 01:21:12;;;;;;;;;;;;;;;10.29;57.64;100864.94;5465234;32;35076;-69
2023/12/27 01:24:15;;;;;;;;;;;;;;;10.55;57.25;100872.00;5461374;32;35051;-72
2023/12/27 01:27:17;;;;;;;;;;;;;;;10.43;57.67;100887.31;5445250;32;34981;-73
2023/12/27 01:30:19;;;;;;;;;;;;;;;10.42;57.65;100896.97;5465811;32;34101;-72
2023/12/27 01:33:21;;;;;;;;;;;;;;;9.86;59.49;100899.47;5460380;32;34750;-72
2023/12/27 01:36:24;;;;;;;;;;;;;;;10.03;58.46;100898.97;5465070;32;34559;-70
2023/12/27 01:39:26;;;;;;;;;;;;;;;10.05;58.64;100907.69;5460635;32;36597;-70
2023/12/27 01:42:28;;;;;;;;;;;;;;;10.25;58.02;100902.72;5448303;32;34963;-72
2023/12/27 01:45:31;;;;;;;;;;;;;;;10.81;56.44;100900.12;5462340;32;35708;-70
2023/12/27 01:48:34;;;;;;;;;;;;;;;10.24;58.10;100902.75;5459836;32;35355;-72
2023/12/27 01:51:36;;;;;;;;;;;;;;;10.22;58.13;100918.53;5463684;32;35524;-73
2023/12/27 01:54:38;;;;;;;;;;;;;;;10.63;57.07;100905.13;5444735;32;35123;-69
2023/12/27 01:57:41;;;;;;;;;;;;;;;10.56;57.15;100904.41;5467043;32;35694;-69
2023/12/27 02:00:44;;;;;;;;;;;;;;;11.02;55.56;100910.88;5462800;32;34366;-70
2023/12/27 02:03:46;;;;;;;;;;;;;;;10.57;56.60;100906.16;5465495;32;34156;-70
2023/12/27 02:06:48;;;;;;;;;;;;;;;10.46;57.05;100911.72;5448222;32;34380;-70
2023/12/27 02:09:51;;;;;;;;;;;;;;;10.75;55.83;100909.97;5447872;32;35571;-71
2023/12/27 02:12:54;;;;;;;;;;;;;;;9.64;58.48;100914.06;5452542;32;35597;-74
2023/12/27 02:15:56;;;;;;;;;;;;;;;10.20;57.56;100915.09;5462714;32;34861;-72
2023/12/27 02:19:00;;;;;;;;;;;;;;;10.16;57.44;100915.22;5437524;32;34023;-73
2023/12/27 02:22:02;;;;;;;;;;;;;;;9.89;57.44;100920.38;5447456;32;34843;-71
2023/12/27 02:25:04;;;;;;;;;;;;;;;10.33;56.03;100931.41;5464943;32;34917;-69
2023/12/27 02:28:06;;;;;;;;;;;;;;;10.97;54.63;100937.31;5464770;32;35436;-72
2023/12/27 02:31:09;;;;;;;;;;;;;;;10.81;55.33;100943.94;5422272;32;837473;-69
2023/12/27 02:34:11;;;;;;;;;;;;;;;10.12;56.70;100930.22;5467176;32;34837;-74
2023/12/27 02:37:13;;;;;;;;;;;;;;;10.50;55.49;100930.91;5464245;32;34724;-70
2023/12/27 02:40:16;;;;;;;;;;;;;;;11.06;54.06;100926.50;5467581;32;35384;-69
2023/12/27 02:43:18;;;;;;;;;;;;;;;11.06;54.05;100930.88;5462115;32;35049;-71
2023/12/27 02:46:20;;;;;;;;;;;;;;;11.33;53.25;100927.38;5463950;32;34161;-70
2023/12/27 02:49:22;;;;;;;;;;;;;;;11.14;53.62;100934.12;5453764;32;34904;-70
2023/12/27 02:52:24;;;;;;;;;;;;;;;11.39;52.64;100921.00;5459260;32;35413;-70
2023/12/27 02:55:27;;;;;;;;;;;;;;;11.18;52.99;100927.88;5444809;32;35634;-72
2023/12/27 02:58:29;;;;;;;;;;;;;;;10.78;53.95;100930.91;5460354;32;35091;-72
2023/12/27 03:01:32;;;;;;;;;;;;;;;10.28;54.87;100928.03;5466545;32;35395;-70
2023/12/27 03:04:34;;;;;;;;;;;;;;;10.36;55.01;100928.66;5462212;32;35026;-69
2023/12/27 03:07:37;;;;;;;;;;;;;;;10.42;54.97;100939.00;5444162;32;34236;-72
2023/12/27 03:10:39;;;;;;;;;;;;;;;11.04;53.45;100935.34;5466088;32;35144;-73
2023/12/27 03:13:41;;;;;;;;;;;;;;;10.40;54.75;100934.72;5461597;32;35363;-70
2023/12/27 03:16:43;;;;;;;;;;;;;;;10.92;53.72;100933.09;5466653;32;35186;-71
2023/12/27 03:19:45;;;;;;;;;;;;;;;10.20;55.12;100933.50;5461655;32;35429;-71
2023/12/27 03:22:47;;;;;;;;;;;;;;;10.88;53.31;100942.84;5448313;32;34294;-73
2023/12/27 03:25:50;;;;;;;;;;;;;;;10.22;54.63;100944.81;5462968;32;35046;-72
2023/12/27 03:28:52;;;;;;;;;;;;;;;10.76;53.72;100953.78;5444932;32;35492;-70
2023/12/27 03:31:54;;;;;;;;;;;;;;;10.43;54.55;100961.78;5464892;32;35233;-72
2023/12/27 03:34:56;;;;;;;;;;;;;;;10.32;53.94;100958.59;5461915;32;35458;-73
2023/12/27 03:37:58;;;;;;;;;;;;;;;10.36;54.24;100960.19;5470238;32;34315;-70
2023/12/27 03:41:00;;;;;;;;;;;;;;;10.73;53.16;100974.88;5461793;32;35292;-73
2023/12/27 03:44:03;;;;;;;;;;;;;;;10.80;52.77;100972.03;5465989;32;34540;-72
2023/12/27 03:47:05;;;;;;;;;;;;;;;10.66;52.78;100971.59;5461645;32;34351;-70
2023/12/27 03:50:07;;;;;;;;;;;;;;;10.28;53.31;100973.56;5467366;32;34596;-73
2023/12/27 03:53:09;;;;;;;;;;;;;;;10.30;54.16;100979.66;5463523;32;35468;-72
2023/12/27 03:56:12;;;;;;;;;;;;;;;9.94;54.80;100985.87;5465778;32;35439;-73
2023/12/27 03:59:14;;;;;;;;;;;;;;;9.75;55.42;100978.50;5466486;32;35569;-72
2023/12/27 04:02:16;;;;;;;;;;;;;;;9.91;55.06;100981.56;5460752;32;35263;-72
2023/12/27 04:05:18;;;;;;;;;;;;;;;10.44;53.72;100978.41;5466646;32;34685;-70
2023/12/27 04:08:20;;;;;;;;;;;;;;;10.72;52.85;100984.53;5461373;32;35402;-70
2023/12/27 04:11:23;;;;;;;;;;;;;;;10.67;52.81;100996.09;5461406;32;35751;-72
2023/12/27 04:14:25;;;;;;;;;;;;;;;10.75;52.60;100988.84;5465404;32;34891;-73
2023/12/27 04:17:27;;;;;;;;;;;;;;;11.08;51.81;100989.59;5461827;32;35351;-70
2023/12/27 04:20:29;;;;;;;;;;;;;;;11.26;50.95;100993.37;5466667;32;34339;-71
2023/12/27 04:23:32;;;;;;;;;;;;;;;10.34;53.00;100995.31;5461248;32;35075;-71
2023/12/27 04:26:35;;;;;;;;;;;;;;;10.74;52.39;101005.53;5466118;32;34680;-71
2023/12/27 04:29:38;;;;;;;;;;;;;;;10.92;51.65;101002.34;5461452;32;34971;-71
2023/12/27 04:32:40;;;;;;;;;;;;;;;9.93;53.70;101006.03;5460803;32;35163;-71
2023/12/27 04:35:42;;;;;;;;;;;;;;;10.55;52.61;101007.84;5466026;32;34686;-70
2023/12/27 04:38:44;;;;;;;;;;;;;;;10.38;52.89;101012.72;5464785;32;35192;-71
2023/12/27 04:41:47;;;;;;;;;;;;;;;10.62;52.52;101013.78;5465394;32;34767;-74
2023/12/27 04:44:49;;;;;;;;;;;;;;;10.46;52.83;101008.12;5447152;32;35488;-73
2023/12/27 04:47:51;;;;;;;;;;;;;;;10.51;52.32;101008.84;5465292;32;34999;-74
2023/12/27 04:50:53;;;;;;;;;;;;;;;9.30;55.00;101019.00;5468232;32;35078;-69
2023/12/27 04:53:56;;;;;;;;;;;;;;;9.24;56.26;101035.75;5443474;32;34889;-72
2023/12/27 04:56:58;;;;;;;;;;;;;;;9.30;55.71;101037.37;5472704;32;34933;-72
2023/12/27 05:00:00;;;;;;;;;;;;;;;9.66;54.71;101036.50;5461571;32;34787;-69
2023/12/27 05:03:03;;;;;;;;;;;;;;;9.10;56.28;101038.69;5466027;32;35461;-74
2023/12/27 05:06:05;;;;;;;;;;;;;;;9.39;56.12;101048.50;5459227;32;35510;-72
2023/12/27 05:09:08;;;;;;;;;;;;;;;8.91;57.24;101055.72;5465401;32;34706;-72
2023/12/27 05:12:10;;;;;;;;;;;;;;;9.21;56.00;101059.44;5462211;32;34961;-69
2023/12/27 05:15:12;;;;;;;;;;;;;;;9.15;56.46;101055.19;5440793;32;34725;-70
2023/12/27 05:18:14;;;;;;;;;;;;;;;9.22;55.50;101064.66;5465461;32;34273;-70
2023/12/27 05:21:17;;;;;;;;;;;;;;;8.95;56.73;101075.72;5446087;32;34418;-69
2023/12/27 05:24:20;;;;;;;;;;;;;;;9.47;55.28;101079.81;5451014;32;34610;-73
2023/12/27 05:27:22;;;;;;;;;;;;;;;9.44;54.80;101082.50;5445667;32;34630;-70
2023/12/27 05:30:24;;;;;;;;;;;;;;;10.17;53.45;101077.19;5464639;32;34395;-69
2023/12/27 05:33:26;;;;;;;;;;;;;;;10.09;52.90;101087.91;5462187;32;35573;-68
2023/12/27 05:36:29;;;;;;;;;;;;;;;10.10;52.50;101083.50;5461591;32;34607;-69
2023/12/27 05:39:31;;;;;;;;;;;;;;;9.65;53.87;101082.00;5465151;32;34589;-70
2023/12/27 05:42:33;;;;;;;;;;;;;;;9.97;53.57;101099.56;5460504;32;34402;-71
2023/12/27 05:45:36;;;;;;;;;;;;;;;10.27;52.63;101097.97;5465193;32;34523;-71
2023/12/27 05:48:38;;;;;;;;;;;;;;;10.13;52.91;101102.69;5440975;32;35389;-69
2023/12/27 05:51:40;;;;;;;;;;;;;;;9.98;53.25;101105.69;5445635;32;34361;-72
2023/12/27 05:54:43;;;;;;;;;;;;;;;9.78;53.48;101111.44;5445023;32;35342;-71
2023/12/27 05:57:45;;;;;;;;;;;;;;;10.05;52.64;101107.28;5460265;32;34841;-72
2023/12/27 06:00:47;;;;;;;;;;;;;;;9.40;54.30;101125.44;5445733;32;34464;-70
2023/12/27 06:03:49;;;;;;;;;;;;;;;10.04;53.09;101126.53;5460119;32;34281;-72
2023/12/27 06:06:52;;;;;;;;;;;;;;;9.66;53.70;101136.22;5464656;32;34831;-71
2023/12/27 06:09:54;;;;;;;;;;;;;;;9.72;53.83;101135.19;5439940;32;35404;-70
2023/12/27 06:12:55;;;;;;;;;;;;;;;9.93;53.30;101144.34;5440464;32;34729;-73
2023/12/27 06:15:58;;;;;;;;;;;;;;;10.46;51.97;101157.91;5462640;32;34739;-72
2023/12/27 06:19:00;;;;;;;;;;;;;;;10.12;52.24;101143.00;5442803;32;36934;-72
2023/12/27 06:22:03;;;;;;;;;;;;;;;9.96;52.49;101145.13;5464529;32;34361;-70
2023/12/27 06:25:05;;;;;;;;;;;;;;;9.93;53.08;101152.22;5459769;32;35044;-70
2023/12/27 06:28:07;;;;;;;;;;;;;;;10.18;52.19;101148.09;5463992;32;32500;-73
2023/12/27 06:31:09;;;;;;;;;;;;;;;9.46;53.80;101160.28;5459418;32;34980;-70
2023/12/27 06:34:11;;;;;;;;;;;;;;;9.69;53.82;101165.03;5447213;32;35486;-70
2023/12/27 06:37:13;;;;;;;;;;;;;;;10.22;52.55;101162.84;5465483;32;35128;-71
2023/12/27 06:40:16;;;;;;;;;;;;;;;10.61;51.34;101165.37;5462769;32;34771;-71
2023/12/27 06:43:19;;;;;;;;;;;;;;;10.38;51.89;101188.78;5452282;32;34733;-74
2023/12/27 06:46:21;;;;;;;;;;;;;;;10.05;52.65;101193.94;5461778;32;34896;-70
2023/12/27 06:49:23;;;;;;;;;;;;;;;10.34;51.54;101202.91;5466556;32;34864;-72
2023/12/27 06:52:25;;;;;;;;;;;;;;;9.83;52.84;101217.19;5445268;32;35002;-71
2023/12/27 06:55:27;;;;;;;;;;;;;;;9.99;52.62;101209.84;5471773;32;34488;-73
2023/12/27 06:58:29;;;;;;;;;;;;;;;9.29;54.49;101219.28;5466143;32;34784;-73
2023/12/27 07:01:31;;;;;;;;;;;;;;;9.46;54.22;101214.53;5461405;32;34813;-70
2023/12/27 07:04:33;;;;;;;;;;;;;;;10.23;52.18;101209.28;5466994;32;36528;-72
2023/12/27 07:07:36;;;;;;;;;;;;;;;10.12;52.37;101220.94;5461706;32;34830;-70
2023/12/27 07:10:38;;;;;;;;;;;;;;;10.39;51.56;101227.31;5466889;32;35468;-70
2023/12/27 07:13:40;;;;;;;;;;;;;;;10.02;52.61;101226.37;5461727;32;34882;-72
2023/12/27 07:16:42;;;;;;;;;;;;;;;9.93;52.73;101229.25;5463139;32;34827;-73
2023/12/27 07:19:44;;;;;;;;;;;;;;;10.43;51.53;101242.97;5466042;32;35777;-70
2023/12/27 07:22:46;;;;;;;;;;;;;;;10.34;51.67;101255.44;5462028;32;34775;-73
2023/12/27 07:25:48;;;;;;;;;;;;;;;10.65;50.99;101250.31;5466820;32;35544;-71
2023/12/27 07:28:50;;;;;;;;;;;;;;;10.89;50.42;101261.94;5461618;32;35338;-72
2023/12/27 07:31:52;;;;;;;;;;;;;;;10.67;50.97;101262.50;5450089;32;34256;-73
2023/12/27 07:34:57;;;;;;;;;;;;;;;10.82;50.81;101262.12;5447242;32;36263;-73
2023/12/27 07:38:00;;;;;;;;;;;;;;;11.08;49.67;101255.28;5467020;32;36290;-69
2023/12/27 07:41:04;;;;;;;;;;;;;;;10.90;49.71;101276.81;5466629;32;35662;-70
2023/12/27 07:44:06;;;;;;;;;;;;;;;10.67;50.63;101261.63;5461080;32;34387;-72
2023/12/27 07:47:08;;;;;;;;;;;;;;;11.01;49.86;101272.13;5451352;32;34732;-73
2023/12/27 07:50:10;;;;;;;;;;;;;;;10.59;50.61;101272.34;5462638;32;34550;-71
2023/12/27 07:53:12;;;;;;;;;;;;;;;10.98;49.65;101272.22;5446913;32;35055;-73
2023/12/27 07:56:15;;;;;;;;;;;;;;;10.99;49.87;101273.94;5461029;32;34304;-70
2023/12/27 07:59:17;;;;;;;;;;;;;;;10.36;51.74;101272.91;5460916;32;34795;-72
2023/12/27 08:02:19;;;;;;;;;;;;;;;10.64;51.47;101273.09;5465747;32;34718;-73
2023/12/27 08:05:22;;;;;;;;;;;;;;;10.60;50.36;101295.09;5461154;32;35931;-70
2023/12/27 08:08:25;;;;;;;;;;;;;;;10.76;50.42;101291.19;5451068;32;35646;-69
2023/12/27 08:11:27;;;;;;;;;;;;;;;11.20;49.64;101288.28;5460907;32;34440;-74
2023/12/27 08:14:28;;;;;;;;;;;;;;;10.65;49.96;101295.00;5465999;32;34923;-72
2023/12/27 08:17:30;;;;;;;;;;;;;;;11.22;49.32;101300.50;5461561;32;35379;-73
2023/12/27 08:20:32;;;;;;;;;;;;;;;10.11;51.33;101304.13;5461964;32;34564;-73
2023/12/27 08:23:35;;;;;;;;;;;;;;;10.02;52.05;101302.53;5465897;32;35123;-72
2023/12/27 08:26:37;;;;;;;;;;;;;;;10.23;52.15;101306.47;5460794;32;35348;-72
2023/12/27 08:29:41;;;;;;;;;;;;;;;10.75;51.54;101315.75;5466223;32;34854;-71
2023/12/27 08:32:43;;;;;;;;;;;;;;;10.43;52.76;101319.19;5428702;32;34675;-71
2023/12/27 08:35:44;;;;;;;;;;;;;;;11.50;49.96;101328.69;5465895;32;34908;-73
2023/12/27 08:38:46;;;;;;;;;;;;;;;11.77;49.30;101327.91;5466189;32;35066;-74
2023/12/27 08:41:48;;;;;;;;;;;;;;;11.75;49.04;101336.75;5460854;32;34794;-70
2023/12/27 08:44:50;;;;;;;;;;;;;;;11.50;50.14;101342.72;5465893;32;35420;-73
2023/12/27 08:47:52;;;;;;;;;;;;;;;11.48;49.56;101351.56;5460772;32;35459;-70
2023/12/27 08:50:54;;;;;;;;;;;;;;;11.83;48.30;101363.75;5444789;32;35858;-69
2023/12/27 08:53:56;;;;;;;;;;;;;;;11.27;49.58;101377.56;5457725;32;34718;-69
2023/12/27 08:56:58;;;;;;;;;;;;;;;10.79;51.40;101384.91;5465180;32;34080;-72
2023/12/27 09:00:00;;;;;;;;;;;;;;;11.70;50.19;101404.50;5442832;32;35039;-72
2023/12/27 09:03:03;;;;;;;;;;;;;;;10.75;52.52;101389.37;5443430;32;35394;-74
2023/12/27 09:06:05;;;;;;;;;;;;;;;11.24;49.98;101403.09;5465486;32;35355;-69
2023/12/27 09:09:09;;;;;;;;;;;;;;;11.69;48.11;101395.72;5446263;32;34157;-73
2023/12/27 09:12:11;;;;;;;;;;;;;;;11.35;49.05;101401.91;5465165;32;35391;-74
2023/12/27 09:15:14;;;;;;;;;;;;;;;12.45;46.79;101398.78;5460612;32;34695;-71
2023/12/27 09:18:16;;;;;;;;;;;;;;;11.78;47.04;101416.53;5464126;32;34801;-74
2023/12/27 09:21:18;;;;;;;;;;;;;;;12.16;46.44;101411.97;5461180;32;35163;-72
2023/12/27 09:24:20;;;;;;;;;;;;;;;11.95;46.61;101417.88;5460246;32;34949;-70
2023/12/27 09:27:24;;;;;;;;;;;;;;;11.76;46.74;101422.75;5465110;32;35143;-74
2023/12/27 09:30:26;;;;;;;;;;;;;;;11.87;45.83;101426.00;5460495;32;34554;-70
2023/12/27 09:33:28;;;;;;;;;;;;;;;10.84;48.92;101425.97;5464501;32;35700;-70
2023/12/27 09:36:31;;;;;;;;;;;;;;;11.47;47.91;101424.41;5459273;32;34912;-71
2023/12/27 09:39:33;;;;;;;;;;;;;;;11.33;48.18;101432.69;5464604;32;34912;-70
2023/12/27 09:42:35;;;;;;;;;;;;;;;11.03;49.22;101428.16;5461178;32;35117;-70
2023/12/27 09:45:37;;;;;;;;;;;;;;;11.29;48.36;101431.00;5459281;32;34940;-69
2023/12/27 09:48:42;;;;;;;;;;;;;;;11.22;47.61;101418.91;5450014;32;35025;-69
2023/12/27 09:51:45;;;;;;;;;;;;;;;11.02;48.25;101416.78;5435249;32;36321;-71
2023/12/27 09:54:47;;;;;;;;;;;;;;;11.64;47.40;101416.06;5468895;32;34447;-70
2023/12/27 09:57:49;;;;;;;;;;;;;;;11.75;47.78;101416.63;5446089;32;34364;-70
2023/12/27 10:00:51;;;;;;;;;;;;;;;11.43;48.58;101414.00;5462661;32;34901;-70
2023/12/27 10:04:08;;;;;;;;;;;;;;;10.91;49.68;101412.69;5448321;32;34474;-70
2023/12/27 10:07:10;;;;;;;;;;;;;;;11.60;48.61;101407.38;5444415;32;34022;-73
2023/12/27 10:10:13;;;;;;;;;;;;;;;11.44;48.66;101410.47;5449208;32;35046;-73
2023/12/27 10:13:28;;;;;;;;;;;;;;;11.43;48.88;101408.72;5448476;32;34766;-73
2023/12/27 10:16:30;;;;;;;;;;;;;;;10.67;50.67;101395.72;5465735;32;34946;-70
2023/12/27 10:19:39;;;;;;;;;;;;;;;10.01;52.54;101403.25;5464108;32;34731;-74
2023/12/27 10:22:41;;;;;;;;;;;;;;;11.18;49.68;101404.09;5461922;32;34736;-73
2023/12/27 10:25:43;;;;;;;;;;;;;;;10.56;51.15;101410.00;5466795;32;34751;-72
2023/12/27 10:28:46;;;;;;;;;;;;;;;11.47;49.01;101397.22;5462111;32;34590;-72
2023/12/27 10:31:48;;;;;;;;;;;;;;;11.09;49.02;101399.09;5466482;32;34402;-70
2023/12/27 10:34:50;;;;;;;;;;;;;;;10.65;49.10;101395.75;5462209;32;34809;-69
2023/12/27 10:37:59;;;;;;;;;;;;;;;10.92;49.06;101398.63;5465107;32;35034;-70
2023/12/27 10:41:03;;;;;;;;;;;;;;;10.92;49.55;101394.22;5465224;32;34870;-72
2023/12/27 10:44:05;;;;;;;;;;;;;;;10.77;49.22;101392.84;5445537;32;35431;-72
2023/12/27 10:47:07;;;;;;;;;;;;;;;10.76;49.30;101399.00;5467646;32;34385;-72
2023/12/27 10:50:12;;;;;;;;;;;;;;;11.26;48.30;101396.88;5461203;32;34394;-72
2023/12/27 10:53:15;;;;;;;;;;;;;;;10.79;49.83;101391.03;5464066;32;36769;-73
2023/12/27 10:56:17;;;;;;;;;;;;;;;10.44;49.70;101394.50;5461078;32;34647;-70
2023/12/27 10:59:19;;;;;;;;;;;;;;;10.97;48.82;101394.13;5462639;32;34462;-70
2023/12/27 11:02:22;;;;;;;;;;;;;;;11.46;47.85;101392.84;5450436;32;34527;-73
2023/12/27 11:05:25;;;;;;;;;;;;;;;11.52;47.89;101388.28;5447767;32;35483;-70
2023/12/27 11:08:28;;;;;;;;;;;;;;;11.46;48.11;101377.06;5452890;32;35004;-70
2023/12/27 11:11:29;;;;;;;;;;;;;;;11.46;47.97;101385.81;5461356;32;35328;-69
2023/12/27 11:14:33;;;;;;;;;;;;;;;11.84;46.56;101378.66;5439221;32;35690;-72
2023/12/27 11:17:35;;;;;;;;;;;;;;;11.33;47.46;101372.16;5461201;32;34876;-74
2023/12/27 11:20:38;;;;;;;;;;;;;;;11.12;47.91;101384.06;5462421;32;35320;-70
2023/12/27 11:23:40;;;;;;;;;;;;;;;10.54;48.38;101366.22;5450503;32;34480;-73
2023/12/27 11:26:42;;;;;;;;;;;;;;;12.11;45.41;101355.94;5461613;32;35155;-73
2023/12/27 11:29:47;;;;;;;;;;;;;;;12.92;43.69;101342.78;5445908;32;35142;-72
2023/12/27 11:32:49;;;;;;;;;;;;;;;13.57;41.71;101342.28;5453242;32;34927;-71
2023/12/27 11:35:51;;;;;;;;;;;;;;;12.13;44.03;101338.28;5445841;32;34941;-69
2023/12/27 11:38:53;;;;;;;;;;;;;;;13.57;41.18;101334.38;5446379;32;35891;-70
2023/12/27 11:41:57;;;;;;;;;;;;;;;14.06;40.21;101330.75;5447557;32;34865;-70
2023/12/27 11:44:59;;;;;;;;;;;;;;;14.78;38.44;101327.91;5465884;32;34649;-69
2023/12/27 11:48:02;;;;;;;;;;;;;;;13.78;39.59;101340.62;5443436;32;34908;-73
2023/12/27 11:51:40;;;;;;;;;;;;;;;13.68;39.55;101332.19;5445749;32;35666;-71
2023/12/27 11:54:42;;;;;;;;;;;;;;;14.56;38.87;101322.63;5394805;32;34327;-70
2023/12/27 11:57:44;;;;;;;;;;;;;;;16.49;34.55;101304.25;5454706;32;35283;-69
2023/12/27 12:00:46;;;;;;;;;;;;;;;17.14;32.64;101309.84;5452014;32;34895;-71
2023/12/27 12:04:07;;;;;;;;;;;;;;;15.61;34.97;101311.91;5446604;32;35078;-73
2023/12/27 12:07:12;;;;;;;;;;;;;;;15.27;33.68;101328.47;5466080;32;35235;-71
2023/12/27 12:10:24;;;;;;;;;;;;;;;18.37;30.66;101312.91;5461540;32;35335;-75
2023/12/27 12:13:26;;;;;;;;;;;;;;;20.43;26.70;101295.88;5462491;32;35064;-74
2023/12/27 12:16:31;;;;;;;;;;;;;;;19.83;26.50;101307.72;5437543;32;34425;-70
2023/12/27 12:19:34;;;;;;;;;;;;;;;17.73;29.46;101313.84;5461306;32;35591;-73
2023/12/27 12:22:36;;;;;;;;;;;;;;;19.97;26.52;101301.53;5444624;32;35020;-74
2023/12/27 12:25:41;;;;;;;;;;;;;;;18.07;28.67;101304.84;5440101;32;36605;-74
2023/12/27 12:28:52;;;;;;;;;;;;;;;18.93;27.98;101298.16;5446396;32;35744;-73
2023/12/27 12:31:54;;;;;;;;;;;;;;;18.19;28.80;101297.97;5461198;32;34582;-71
2023/12/27 12:34:56;;;;;;;;;;;;;;;20.42;26.36;101287.03;5445349;32;34893;-76
2023/12/27 12:38:00;;;;;;;;;;;;;;;20.45;26.16;101286.84;5471441;32;35320;-74
2023/12/27 12:41:02;;;;;;;;;;;;;;;21.14;25.38;101287.53;5446692;32;34987;-70
2023/12/27 12:44:04;;;;;;;;;;;;;;;23.16;22.59;101289.66;5450646;32;34980;-69
2023/12/27 12:47:07;;;;;;;;;;;;;;;20.98;24.33;101281.50;5460762;32;34938;-70
2023/12/27 12:50:09;;;;;;;;;;;;;;;17.31;29.20;101298.34;5450166;32;34898;-71
2023/12/27 12:53:17;;;;;;;;;;;;;;;18.04;28.47;101288.22;5458232;32;35581;-73
2023/12/27 12:56:19;;;;;;;;;;;;;;;20.30;25.63;101279.81;5459495;32;34643;-70
2023/12/27 12:59:21;;;;;;;;;;;;;;;21.10;24.29;101273.50;5450933;32;34895;-73
2023/12/27 13:02:24;;;;;;;;;;;;;;;20.23;24.90;101278.50;5460945;32;34896;-73
2023/12/27 13:05:26;;;;;;;;;;;;;;;18.65;26.91;101271.37;5465812;32;34802;-73
2023/12/27 13:08:28;;;;;;;;;;;;;;;16.16;30.73;101279.34;5460121;32;34128;-71
2023/12/27 13:11:32;;;;;;;;;;;;;;;14.63;33.56;101283.56;5450219;32;35447;-72
2023/12/27 13:14:40;;;;;;;;;;;;;;;15.10;32.95;101268.28;5441533;32;34897;-70
2023/12/27 13:17:42;;;;;;;;;;;;;;;14.73;34.02;101284.03;5433537;32;34529;-72
2023/12/27 13:20:45;;;;;;;;;;;;;;;13.73;35.80;101274.78;5465050;32;34019;-71
2023/12/27 13:23:47;;;;;;;;;;;;;;;13.81;36.00;101290.31;5460361;32;34712;-73
2023/12/27 13:26:49;;;;;;;;;;;;;;;13.97;35.80;101282.66;5463037;32;35427;-70
2023/12/27 13:29:51;;;;;;;;;;;;;;;14.09;35.89;101288.31;5455014;32;34361;-71
2023/12/27 13:32:53;;;;;;;;;;;;;;;14.07;35.81;101281.37;5447131;32;34880;-70
2023/12/27 13:35:55;;;;;;;;;;;;;;;13.06;37.95;101297.44;5463383;32;34844;-73
2023/12/27 13:38:57;;;;;;;;;;;;;;;13.09;38.00;101295.56;5446179;32;34980;-71
2023/12/27 13:41:59;;;;;;;;;;;;;;;12.82;38.99;101288.63;5465237;32;34586;-74
2023/12/27 13:45:01;;;;;;;;;;;;;;;13.53;38.10;101288.72;5439362;32;34371;-70
2023/12/27 13:48:03;;;;;;;;;;;;;;;13.16;38.35;101294.44;5462115;32;34596;-72
2023/12/27 13:51:05;;;;;;;;;;;;;;;13.37;38.13;101289.34;5473001;32;35048;-69
2023/12/27 13:54:08;;;;;;;;;;;;;;;13.58;37.83;101300.88;5445244;32;34540;-70
2023/12/27 13:57:25;;;;;;;;;;;;;;;13.48;38.08;101293.31;5474871;32;33582;-70
2023/12/27 14:00:28;;;;;;;;;;;;;;;12.96;38.73;101297.78;5462438;32;35154;-70
2023/12/27 14:03:30;;;;;;;;;;;;;;;14.40;36.55;101284.47;5466734;32;34981;-73
2023/12/27 14:06:33;;;;;;;;;;;;;;;15.57;34.97;101275.88;5463029;32;35380;-73
2023/12/27 14:09:35;;;;;;;;;;;;;;;17.52;31.44;101278.59;5467553;32;34666;-71
2023/12/27 14:12:42;;;;;;;;;;;;;;;17.77;30.60;101278.13;5447454;32;35153;-70
2023/12/27 14:15:45;;;;;;;;;;;;;;;17.93;30.09;101280.81;5458431;32;34230;-72
2023/12/27 14:18:47;;;;;;;;;;;;;;;17.86;29.91;101285.63;5466857;32;34860;-71
2023/12/27 14:21:49;;;;;;;;;;;;;;;14.96;35.06;101289.22;5462391;32;35498;-72
2023/12/27 14:24:51;;;;;;;;;;;;;;;14.96;35.55;101305.09;5467297;32;34709;-71
2023/12/27 14:27:53;;;;;;;;;;;;;;;14.36;36.65;101312.84;5462413;32;34982;-72
2023/12/27 14:30:55;;;;;;;;;;;;;;;13.32;39.22;101310.63;5466403;32;34870;-69
2023/12/27 14:33:58;;;;;;;;;;;;;;;12.25;41.47;101315.97;5462485;32;35536;-71
2023/12/27 14:37:00;;;;;;;;;;;;;;;12.58;41.04;101312.25;5462020;32;34243;-70
2023/12/27 14:40:06;;;;;;;;;;;;;;;12.19;42.17;101317.88;5467097;32;34452;-72
2023/12/27 14:43:08;;;;;;;;;;;;;;;13.04;40.63;101307.22;5461998;32;34748;-70
2023/12/27 14:46:10;;;;;;;;;;;;;;;13.08;40.38;101304.41;5452508;32;35136;-73
2023/12/27 14:49:12;;;;;;;;;;;;;;;12.97;40.41;101302.13;5463629;32;34515;-73
2023/12/27 14:52:14;;;;;;;;;;;;;;;12.20;42.06;101314.34;5463028;32;34837;-72
2023/12/27 14:55:16;;;;;;;;;;;;;;;13.12;40.35;101290.19;5463340;32;34849;-72
2023/12/27 14:58:18;;;;;;;;;;;;;;;13.07;40.63;101301.81;5444383;32;34823;-71
2023/12/27 15:01:20;;;;;;;;;;;;;;;12.58;41.84;101312.25;5466732;32;34815;-71
2023/12/27 15:04:22;;;;;;;;;;;;;;;13.06;41.12;101313.28;5461989;32;35463;-72
2023/12/27 15:07:25;;;;;;;;;;;;;;;13.73;39.92;101300.34;5466891;32;34684;-72
2023/12/27 15:10:27;;;;;;;;;;;;;;;13.37;40.51;101311.31;5462389;32;34348;-72
2023/12/27 15:13:29;;;;;;;;;;;;;;;12.84;41.48;101314.03;5464227;32;36028;-72
2023/12/27 15:16:31;;;;;;;;;;;;;;;12.45;42.72;101319.69;5464267;32;34953;-73
2023/12/27 15:19:33;;;;;;;;;;;;;;;12.65;42.53;101315.56;5462050;32;34968;-73
2023/12/27 15:22:35;;;;;;;;;;;;;;;12.61;42.61;101309.50;5447875;32;35683;-69
2023/12/27 15:25:38;;;;;;;;;;;;;;;12.53;43.33;101314.16;5461442;32;35300;-72
2023/12/27 15:28:40;;;;;;;;;;;;;;;12.43;43.63;101310.97;5438694;32;34917;-72
2023/12/27 15:31:42;;;;;;;;;;;;;;;12.78;43.20;101308.09;5461521;32;35406;-73
2023/12/27 15:34:44;;;;;;;;;;;;;;;13.16;42.25;101310.28;5464378;32;35025;-72
2023/12/27 15:37:47;;;;;;;;;;;;;;;12.92;42.78;101317.25;5467416;32;34849;-74
2023/12/27 15:40:49;;;;;;;;;;;;;;;12.99;42.63;101300.28;5461896;32;35011;-73